Time;durP1;ratioP1;P1;durP2;ratioP2;P2;SDS_P1;SDS_P2;PMS_P1;PMS_P2;Temp;Humidity;BMP_temperature;BMP_pressure;BME280_temperature;BME280_humidity;BME280_pressure;Samples;Min_cycle;Max_cycle;Signal;HPM_P1;HPM_P2
2021/11/08 00:02:20;;;;;;;41.28;8.90;;;10.70;90.10;;;;;;5041503;28;20047;-61
2021/11/08 00:04:45;;;;;;;33.83;9.77;;;10.70;90.10;;;;;;5023246;28;20029;-61
2021/11/08 00:07:11;;;;;;;30.40;9.38;;;10.70;90.20;;;;;;5037253;28;20036;-61
2021/11/08 00:09:36;;;;;;;33.65;9.57;;;10.70;90.30;;;;;;5042965;28;20118;-61
2021/11/08 00:12:04;;;;;;;27.88;7.82;;;10.70;90.40;;;;;;5040223;28;20040;-61
2021/11/08 00:14:30;;;;;;;34.72;8.77;;;10.70;90.50;;;;;;5041078;28;20041;-61
2021/11/08 00:17:13;;;;;;;37.38;8.55;;;10.70;90.50;;;;;;5038398;28;20021;-61
2021/11/08 00:19:52;;;;;;;29.73;9.23;;;10.80;90.70;;;;;;5026190;28;20028;-61
2021/11/08 00:22:17;;;;;;;28.35;8.32;;;10.70;90.50;;;;;;5040815;28;20045;-61
2021/11/08 00:24:47;;;;;;;34.63;7.80;;;10.70;90.60;;;;;;5043090;28;20036;-61
2021/11/08 00:27:13;;;;;;;33.97;8.45;;;10.70;90.80;;;;;;5042896;28;20025;-61
2021/11/08 00:29:38;;;;;;;32.80;9.35;;;10.70;90.90;;;;;;5038656;28;20041;-61
2021/11/08 00:32:06;;;;;;;38.50;9.77;;;10.70;90.80;;;;;;5038276;28;20055;-61
2021/11/08 00:34:31;;;;;;;26.10;8.43;;;10.70;90.70;;;;;;5042347;28;20029;-61
2021/11/08 00:36:58;;;;;;;33.70;8.95;;;10.70;90.80;;;;;;5040632;28;20025;-61
2021/11/08 00:39:25;;;;;;;35.15;8.68;;;10.60;90.80;;;;;;5040404;28;20025;-61
2021/11/08 00:41:51;;;;;;;27.65;7.85;;;10.70;90.90;;;;;;5041377;28;20075;-61
2021/11/08 00:44:17;;;;;;;27.35;8.13;;;10.70;91.00;;;;;;5040259;28;20040;-61
2021/11/08 00:46:43;;;;;;;28.05;8.30;;;10.70;91.30;;;;;;5040062;28;20040;-61
2021/11/08 00:49:10;;;;;;;22.10;6.88;;;10.70;91.70;;;;;;5038731;28;20036;-61
2021/11/08 00:51:39;;;;;;;35.13;7.55;;;10.70;91.30;;;;;;5041077;28;20465;-61
2021/11/08 00:54:09;;;;;;;37.92;7.90;;;10.70;91.40;;;;;;5040592;28;20067;-61
2021/11/08 00:56:35;;;;;;;22.30;6.50;;;10.70;91.40;;;;;;5036649;28;20045;-61
2021/11/08 00:59:00;;;;;;;19.58;6.55;;;10.70;91.40;;;;;;5015119;28;20041;-61
2021/11/08 01:01:26;;;;;;;33.80;7.82;;;10.70;91.40;;;;;;5041397;28;20064;-61
2021/11/08 01:03:52;;;;;;;24.95;7.35;;;10.70;91.40;;;;;;5006642;28;20025;-61
2021/11/08 01:06:18;;;;;;;23.50;7.30;;;10.70;91.30;;;;;;5039600;28;20036;-61
2021/11/08 01:08:44;;;;;;;24.67;7.07;;;10.70;91.40;;;;;;5022644;28;20036;-61
2021/11/08 01:11:10;;;;;;;20.08;6.82;;;10.70;91.40;;;;;;5020921;28;20036;-61
2021/11/08 01:13:36;;;;;;;17.77;6.35;;;10.70;91.30;;;;;;5022482;28;20039;-61
2021/11/08 01:16:03;;;;;;;19.23;7.18;;;10.70;91.30;;;;;;5040655;28;20494;-61
2021/11/08 01:18:28;;;;;;;18.73;6.47;;;10.60;91.30;;;;;;5039696;28;20035;-61
2021/11/08 01:20:54;;;;;;;20.40;6.32;;;10.70;91.30;;;;;;5041936;28;20033;-61
2021/11/08 01:23:27;;;;;;;24.15;6.63;;;10.70;91.30;;;;;;5038915;28;20067;-61
2021/11/08 01:25:59;;;;;;;29.33;7.25;;;10.60;91.30;;;;;;5022233;28;20044;-61
2021/11/08 01:28:35;;;;;;;23.58;7.03;;;10.60;91.30;;;;;;5040486;28;20036;-61
2021/11/08 01:31:01;;;;;;;16.55;6.55;;;10.60;91.20;;;;;;5024279;28;20145;-61
2021/11/08 01:33:27;;;;;;;20.75;6.78;;;10.60;91.20;;;;;;5019803;28;20267;-61
2021/11/08 01:36:09;;;;;;;18.90;6.55;;;10.70;91.30;;;;;;5041194;28;20412;-61
2021/11/08 01:38:40;;;;;;;36.20;7.85;;;10.60;91.30;;;;;;5021340;28;20060;-61
2021/11/08 01:41:06;;;;;;;82.57;12.18;;;10.60;91.30;;;;;;4992217;28;20401;-61
2021/11/08 01:43:35;;;;;;;105.97;15.10;;;10.60;91.30;;;;;;5023889;28;20041;-61
2021/11/08 01:46:01;;;;;;;83.55;10.63;;;10.70;91.40;;;;;;5023621;28;20041;-61
2021/11/08 01:48:28;;;;;;;66.43;10.05;;;10.60;91.40;;;;;;5022832;28;20407;-61
2021/11/08 01:50:54;;;;;;;44.92;9.65;;;10.60;91.50;;;;;;5023010;28;20138;-61
2021/11/08 01:53:21;;;;;;;43.50;9.10;;;10.60;91.50;;;;;;5042593;28;20215;-61
2021/11/08 01:55:47;;;;;;;36.20;8.73;;;10.60;91.40;;;;;;5024276;28;20048;-61
2021/11/08 01:58:13;;;;;;;39.25;8.15;;;10.60;91.40;;;;;;5041679;28;20036;-61
2021/11/08 02:00:38;;;;;;;55.10;8.52;;;10.60;91.40;;;;;;5022775;28;20367;-61
2021/11/08 02:03:04;;;;;;;47.63;8.00;;;10.60;91.40;;;;;;5040311;28;20355;-61
2021/11/08 02:05:30;;;;;;;48.60;8.45;;;10.60;91.40;;;;;;5038335;28;20053;-61
2021/11/08 02:07:55;;;;;;;39.15;8.52;;;10.70;91.50;;;;;;5023123;28;20021;-61
2021/11/08 02:10:21;;;;;;;40.60;8.88;;;10.60;91.40;;;;;;5024332;28;20048;-61
2021/11/08 02:12:47;;;;;;;34.75;7.55;;;10.60;91.40;;;;;;5020809;28;20053;-61
2021/11/08 02:15:14;;;;;;;42.63;8.50;;;10.70;91.40;;;;;;5040378;28;20206;-60
2021/11/08 02:17:45;;;;;;;41.67;8.55;;;10.70;91.40;;;;;;4990471;28;20045;-61
2021/11/08 02:20:22;;;;;;;29.90;7.97;;;10.60;91.40;;;;;;5041800;28;20025;-60
2021/11/08 02:22:50;;;;;;;33.60;7.07;;;10.60;91.50;;;;;;5042190;28;20073;-61
2021/11/08 02:25:17;;;;;;;41.47;8.63;;;10.70;91.50;;;;;;5040961;28;20090;-60
2021/11/08 02:27:43;;;;;;;43.60;8.15;;;10.60;91.40;;;;;;5005782;28;20393;-61
2021/11/08 02:30:10;;;;;;;29.63;7.63;;;10.60;91.50;;;;;;5023905;28;20207;-61
2021/11/08 02:32:36;;;;;;;35.55;7.85;;;10.60;91.50;;;;;;5007818;28;20114;-61
2021/11/08 02:35:02;;;;;;;32.88;7.38;;;10.60;91.50;;;;;;5007580;28;20021;-61
2021/11/08 02:37:28;;;;;;;30.80;6.85;;;10.60;91.50;;;;;;5007695;28;20040;-60
2021/11/08 02:39:54;;;;;;;36.65;7.03;;;10.60;91.60;;;;;;5040632;28;20428;-60
2021/11/08 02:42:20;;;;;;;37.50;7.80;;;10.60;91.60;;;;;;5039281;28;20136;-61
2021/11/08 02:44:46;;;;;;;34.30;7.88;;;10.60;91.70;;;;;;5041226;28;20241;-60
2021/11/08 02:47:13;;;;;;;28.30;6.75;;;10.60;91.80;;;;;;5041732;28;20056;-60
2021/11/08 02:49:43;;;;;;;29.48;6.95;;;10.60;91.90;;;;;;5023178;28;20017;-61
2021/11/08 02:52:10;;;;;;;26.50;6.60;;;10.60;92.30;;;;;;5022680;28;20680;-61
2021/11/08 02:54:39;;;;;;;28.65;7.20;;;10.60;91.90;;;;;;5041878;28;20368;-60
2021/11/08 02:57:05;;;;;;;23.00;7.13;;;10.60;91.80;;;;;;5009518;28;20139;-60
2021/11/08 02:59:32;;;;;;;43.25;7.82;;;10.60;91.90;;;;;;5026218;28;20037;-60
2021/11/08 03:01:59;;;;;;;24.13;6.85;;;10.60;92.00;;;;;;5045096;28;20059;-60
2021/11/08 03:04:29;;;;;;;25.30;6.57;;;10.60;92.00;;;;;;5009462;28;20476;-60
2021/11/08 03:06:55;;;;;;;19.92;6.25;;;10.60;92.00;;;;;;5025650;28;20543;-61
2021/11/08 03:09:45;;;;;;;26.95;7.80;;;10.60;92.00;;;;;;5024752;28;20120;-60
2021/11/08 03:12:14;;;;;;;20.40;6.10;;;10.60;92.00;;;;;;5026459;28;20037;-60
2021/11/08 03:14:47;;;;;;;25.13;6.55;;;10.60;92.10;;;;;;5044536;28;20394;-61
2021/11/08 03:17:16;;;;;;;34.35;5.97;;;10.60;92.10;;;;;;5010879;28;20025;-60
2021/11/08 03:19:43;;;;;;;28.45;7.05;;;10.60;92.40;;;;;;5042930;28;20079;-61
2021/11/08 03:22:16;;;;;;;35.33;6.43;;;10.60;92.10;;;;;;5025386;28;20474;-60
2021/11/08 03:27:14;;;;;;;38.25;7.75;;;10.60;92.10;;;;;;5043674;28;20404;-61
2021/11/08 03:29:39;;;;;;;27.67;7.10;;;10.60;92.10;;;;;;5043117;28;20068;-61
2021/11/08 03:32:05;;;;;;;23.38;7.18;;;10.60;92.00;;;;;;5042119;28;20029;-61
2021/11/08 03:34:31;;;;;;;40.70;7.03;;;10.60;92.00;;;;;;5042783;28;20029;-60
2021/11/08 03:36:57;;;;;;;42.83;8.02;;;10.60;92.10;;;;;;5025765;28;20056;-60
2021/11/08 03:39:23;;;;;;;50.70;7.72;;;10.50;92.20;;;;;;5025905;28;20033;-60
2021/11/08 03:41:49;;;;;;;34.35;7.28;;;10.50;92.20;;;;;;5044487;28;20119;-61
2021/11/08 03:44:14;;;;;;;34.20;7.25;;;10.50;92.20;;;;;;5023890;28;20098;-60
2021/11/08 03:46:40;;;;;;;23.08;6.68;;;10.60;92.30;;;;;;5043644;28;20044;-60
2021/11/08 03:49:05;;;;;;;37.55;7.07;;;10.50;92.20;;;;;;5041784;28;20237;-61
2021/11/08 03:51:31;;;;;;;26.70;6.45;;;10.50;92.20;;;;;;5042618;28;20033;-60
2021/11/08 03:53:56;;;;;;;37.95;7.72;;;10.50;92.20;;;;;;5039456;28;20013;-61
2021/11/08 03:56:22;;;;;;;25.02;6.38;;;10.50;92.20;;;;;;5044082;28;20473;-61
2021/11/08 03:58:47;;;;;;;31.10;7.78;;;10.50;92.20;;;;;;5039993;28;20432;-61
2021/11/08 04:01:14;;;;;;;26.42;7.15;;;10.50;92.20;;;;;;5042676;28;20064;-60
2021/11/08 04:03:40;;;;;;;26.70;6.55;;;10.50;92.20;;;;;;5040639;28;20105;-60
2021/11/08 04:06:05;;;;;;;34.95;6.95;;;10.50;92.20;;;;;;5042737;28;20496;-60
2021/11/08 04:08:31;;;;;;;31.60;7.05;;;10.50;92.10;;;;;;5041800;28;20025;-60
2021/11/08 04:10:57;;;;;;;34.75;6.95;;;10.50;92.20;;;;;;5041372;28;20104;-61
2021/11/08 04:13:28;;;;;;;29.98;5.90;;;10.50;92.20;;;;;;5040253;28;20460;-60
2021/11/08 04:15:54;;;;;;;22.63;7.70;;;10.50;92.20;;;;;;5041874;28;20434;-61
2021/11/08 04:18:22;;;;;;;27.02;6.13;;;10.50;92.20;;;;;;5041735;28;20090;-61
2021/11/08 04:20:48;;;;;;;33.90;6.78;;;10.50;92.20;;;;;;5026238;28;20119;-60
2021/11/08 04:23:15;;;;;;;23.58;6.93;;;10.50;92.20;;;;;;5040130;28;20111;-60
2021/11/08 04:25:42;;;;;;;34.67;6.10;;;10.50;92.30;;;;;;5024333;28;20112;-61
2021/11/08 04:28:07;;;;;;;32.40;6.35;;;10.50;92.30;;;;;;5040839;28;20535;-60
2021/11/08 04:30:34;;;;;;;23.60;5.68;;;10.50;92.30;;;;;;5043610;28;20047;-60
2021/11/08 04:46:06;;;;;;;27.30;5.45;;;10.50;92.30;;;;;;5043254;28;20044;-61
2021/11/08 05:31:42;;;;;;;17.50;5.22;;;10.40;92.30;;;;;;5041164;28;20025;-60
2021/11/08 05:34:07;;;;;;;11.10;4.70;;;10.40;92.30;;;;;;5038397;28;20479;-60
2021/11/08 05:36:33;;;;;;;18.17;4.50;;;10.40;92.30;;;;;;5026411;28;20052;-60
2021/11/08 05:39:00;;;;;;;16.77;4.30;;;10.40;92.30;;;;;;5043347;28;20036;-60
2021/11/08 05:41:27;;;;;;;16.20;4.30;;;10.40;92.30;;;;;;5041703;28;20538;-61
2021/11/08 05:43:52;;;;;;;16.92;4.38;;;10.40;92.30;;;;;;5054150;28;20052;-61
2021/11/08 05:46:19;;;;;;;17.17;4.68;;;10.40;92.30;;;;;;5039823;28;20048;-61
2021/11/08 05:48:48;;;;;;;15.68;4.50;;;10.40;92.30;;;;;;5023598;28;20020;-61
2021/11/08 05:51:14;;;;;;;15.38;4.50;;;10.40;92.20;;;;;;5042325;28;20484;-61
2021/11/08 05:53:47;;;;;;;22.85;4.65;;;10.30;92.20;;;;;;5038470;28;20120;-61
2021/11/08 05:56:26;;;;;;;16.65;4.32;;;10.30;92.10;;;;;;5040518;28;20145;-60
2021/11/08 05:59:22;;;;;;;12.77;4.10;;;10.30;92.20;;;;;;5039537;28;20025;-61
2021/11/08 06:48:55;;;;;;;15.25;3.80;;;10.20;92.20;;;;;;5044235;28;20083;-61
2021/11/08 06:51:04;;;;;;;7.75;3.10;;;10.20;92.20;;;;;;5040070;28;20132;-61
2021/11/08 06:53:31;;;;;;;10.45;3.47;;;10.20;92.20;;;;;;5042001;28;20435;-61
2021/11/08 06:55:58;;;;;;;17.10;3.58;;;10.20;92.20;;;;;;5043626;28;20048;-60
2021/11/08 06:58:26;;;;;;;8.02;3.08;;;10.20;92.20;;;;;;5020208;28;20041;-61
2021/11/08 07:00:51;;;;;;;9.85;3.65;;;10.20;92.10;;;;;;5037775;28;20041;-60
2021/11/08 07:03:17;;;;;;;8.43;3.33;;;10.20;92.50;;;;;;5042104;28;20154;-61
2021/11/08 07:05:43;;;;;;;9.60;3.55;;;10.20;92.10;;;;;;5040832;28;20037;-61
2021/11/08 07:08:10;;;;;;;7.72;3.00;;;10.20;92.10;;;;;;5024178;28;20044;-60
2021/11/08 07:10:36;;;;;;;12.02;3.50;;;10.20;92.10;;;;;;5042463;28;20091;-61
2021/11/08 07:13:02;;;;;;;11.30;3.13;;;10.20;92.10;;;;;;5038426;28;20496;-60
2021/11/08 07:15:28;;;;;;;11.50;3.75;;;10.20;92.10;;;;;;5021593;28;20059;-61
2021/11/08 07:17:53;;;;;;;7.97;2.70;;;10.20;92.10;;;;;;5035469;28;20384;-60
2021/11/08 07:20:20;;;;;;;10.70;3.63;;;10.20;92.10;;;;;;5039583;28;20044;-60
2021/11/08 07:22:45;;;;;;;10.77;3.25;;;10.20;92.10;;;;;;5041874;28;20621;-60
2021/11/08 07:25:11;;;;;;;8.80;3.25;;;10.20;92.10;;;;;;5041219;28;20039;-60
2021/11/08 07:27:36;;;;;;;10.95;3.00;;;10.20;92.10;;;;;;5037331;28;20033;-60
2021/11/08 07:30:03;;;;;;;14.80;3.78;;;10.30;92.10;;;;;;5040504;28;20064;-61
2021/11/08 07:32:29;;;;;;;7.63;3.13;;;10.20;92.00;;;;;;5040605;28;20133;-61
2021/11/08 07:34:55;;;;;;;5.80;2.85;;;10.20;92.00;;;;;;5042043;28;21018;-61
2021/11/08 07:37:21;;;;;;;8.75;3.17;;;10.20;92.00;;;;;;5042113;28;20021;-61
2021/11/08 07:39:46;;;;;;;9.38;2.63;;;10.30;92.00;;;;;;5035949;28;20150;-61
2021/11/08 07:42:12;;;;;;;8.52;3.17;;;10.30;92.10;;;;;;5037875;28;20092;-61
2021/11/08 07:44:38;;;;;;;16.38;3.42;;;10.30;92.00;;;;;;5040329;28;20128;-60
2021/11/08 07:47:03;;;;;;;12.60;3.30;;;10.40;92.00;;;;;;5022447;28;20029;-60
2021/11/08 07:49:29;;;;;;;14.45;3.40;;;10.40;92.00;;;;;;5038055;28;20651;-61
2021/11/08 07:51:54;;;;;;;12.45;3.88;;;10.30;92.00;;;;;;5039316;28;20025;-61
2021/11/08 07:54:20;;;;;;;15.60;3.53;;;10.40;92.00;;;;;;5040767;28;20032;-61
2021/11/08 07:56:48;;;;;;;18.33;3.58;;;10.40;92.10;;;;;;5042404;28;20076;-60
2021/11/08 07:59:17;;;;;;;11.88;3.67;;;10.30;92.10;;;;;;5029428;28;20173;-61
2021/11/08 08:01:47;;;;;;;27.25;3.70;;;10.40;92.10;;;;;;5021076;28;20041;-60
2021/11/08 08:04:12;;;;;;;13.02;3.20;;;10.40;92.10;;;;;;5024101;28;20029;-61
2021/11/08 08:06:38;;;;;;;13.77;3.63;;;10.40;92.10;;;;;;5038990;28;20033;-61
2021/11/08 08:09:04;;;;;;;14.25;2.92;;;10.40;92.10;;;;;;5039288;28;20432;-60
2021/11/08 08:11:29;;;;;;;27.00;4.30;;;10.40;92.00;;;;;;5007048;28;20506;-61
2021/11/08 08:13:55;;;;;;;22.27;3.92;;;10.40;92.00;;;;;;5039156;28;20047;-61
2021/11/08 08:16:20;;;;;;;20.10;4.93;;;10.40;92.00;;;;;;5041894;28;20025;-60
2021/11/08 08:18:47;;;;;;;16.77;4.60;;;10.40;92.00;;;;;;5021370;28;20074;-59
2021/11/08 08:21:13;;;;;;;22.45;3.90;;;10.40;92.00;;;;;;5020342;28;20153;-61
2021/11/08 08:23:39;;;;;;;24.08;4.72;;;10.50;92.20;;;;;;4989335;28;20053;-60
2021/11/08 08:26:04;;;;;;;13.40;3.97;;;10.50;92.10;;;;;;5041126;28;20039;-61
2021/11/08 08:28:30;;;;;;;23.70;4.22;;;10.40;92.10;;;;;;5020886;28;20075;-62
2021/11/08 08:30:58;;;;;;;15.68;4.47;;;10.50;92.10;;;;;;5037270;28;20291;-61
2021/11/08 08:33:23;;;;;;;21.23;4.60;;;10.50;92.10;;;;;;5009009;28;20051;-61
2021/11/08 08:35:49;;;;;;;15.85;4.55;;;10.50;92.10;;;;;;5024886;28;20053;-62
2021/11/08 08:38:17;;;;;;;14.50;4.03;;;10.50;92.10;;;;;;5006617;28;20088;-60
2021/11/08 08:40:43;;;;;;;18.45;4.50;;;10.50;92.20;;;;;;5004968;28;20112;-60
2021/11/08 08:43:08;;;;;;;18.35;4.25;;;10.50;92.10;;;;;;5026686;28;20105;-61
2021/11/08 08:45:35;;;;;;;17.35;3.75;;;10.60;92.20;;;;;;5025506;28;20771;-61
2021/11/08 08:48:00;;;;;;;21.02;4.40;;;10.50;92.10;;;;;;5036860;28;20060;-60
2021/11/08 08:50:26;;;;;;;14.95;4.15;;;10.40;92.10;;;;;;5042336;28;20455;-61
2021/11/08 08:52:52;;;;;;;10.60;3.83;;;10.50;92.20;;;;;;5020484;28;20083;-61
2021/11/08 08:55:17;;;;;;;24.30;4.85;;;10.50;92.10;;;;;;5025441;28;20056;-61
2021/11/08 08:57:43;;;;;;;14.20;4.57;;;10.60;92.20;;;;;;5034464;28;20025;-61
2021/11/08 09:00:10;;;;;;;21.00;4.82;;;10.60;92.20;;;;;;5024076;28;20166;-62
2021/11/08 09:02:36;;;;;;;21.40;4.43;;;10.60;92.20;;;;;;5041761;28;20060;-61
2021/11/08 09:05:02;;;;;;;13.18;3.85;;;10.60;92.20;;;;;;5035484;28;20044;-61
2021/11/08 09:07:28;;;;;;;21.58;4.28;;;10.50;92.20;;;;;;5038862;28;20032;-61
2021/11/08 09:09:54;;;;;;;18.05;4.97;;;10.60;92.20;;;;;;5021023;28;20697;-61
2021/11/08 09:12:19;;;;;;;13.68;4.47;;;10.60;92.20;;;;;;5047830;28;20021;-61
2021/11/08 09:14:45;;;;;;;14.00;4.80;;;10.60;92.20;;;;;;5042666;28;20101;-62
2021/11/08 09:17:12;;;;;;;26.52;4.80;;;10.60;92.20;;;;;;5022303;28;20021;-61
2021/11/08 09:19:38;;;;;;;24.88;5.45;;;10.60;92.20;;;;;;5038777;28;20032;-61
2021/11/08 09:22:03;;;;;;;18.77;4.57;;;10.60;92.20;;;;;;5015709;28;20099;-61
2021/11/08 09:24:29;;;;;;;17.67;4.85;;;10.70;92.10;;;;;;5040557;28;20043;-61
2021/11/08 09:26:55;;;;;;;28.90;4.10;;;10.70;92.10;;;;;;5042203;28;20495;-61
2021/11/08 09:29:20;;;;;;;16.60;4.03;;;10.70;92.10;;;;;;5041436;28;20086;-61
2021/11/08 09:31:46;;;;;;;24.73;4.63;;;10.70;92.10;;;;;;5020019;28;20029;-61
2021/11/08 09:34:14;;;;;;;26.70;4.68;;;10.70;92.10;;;;;;5041987;28;20086;-61
2021/11/08 09:36:40;;;;;;;22.80;5.00;;;10.70;92.00;;;;;;5025329;28;20036;-61
2021/11/08 09:39:10;;;;;;;74.60;8.75;;;10.70;92.00;;;;;;5024789;28;20103;-61
2021/11/08 09:41:36;;;;;;;47.50;6.28;;;10.80;92.00;;;;;;5042416;28;20041;-61
2021/11/08 09:44:03;;;;;;;26.02;5.00;;;10.80;92.00;;;;;;5039494;28;20021;-61
2021/11/08 09:46:30;;;;;;;34.55;5.93;;;10.80;92.00;;;;;;5040041;28;20116;-61
2021/11/08 09:48:55;;;;;;;47.17;6.57;;;10.90;92.00;;;;;;5021124;28;20073;-61
2021/11/08 09:51:21;;;;;;;68.78;7.13;;;10.90;92.00;;;;;;5040075;28;20403;-60
2021/11/08 09:53:46;;;;;;;52.00;7.22;;;10.90;92.10;;;;;;5038476;28;20033;-61
2021/11/08 09:56:13;;;;;;;71.70;8.77;;;10.90;92.20;;;;;;5043931;28;20029;-61
2021/11/08 09:58:38;;;;;;;95.07;9.73;;;10.90;92.30;;;;;;5006092;28;20885;-61
2021/11/08 10:01:12;;;;;;;95.32;10.85;;;11.00;92.30;;;;;;5034767;28;20033;-61
2021/11/08 10:03:38;;;;;;;84.88;10.38;;;11.00;92.30;;;;;;5042190;28;20037;-61
2021/11/08 10:06:04;;;;;;;90.53;10.77;;;11.00;92.10;;;;;;5045909;28;20040;-61
2021/11/08 10:08:33;;;;;;;87.28;9.10;;;11.10;92.20;;;;;;5043373;28;20132;-61
2021/11/08 10:11:00;;;;;;;55.80;6.55;;;11.10;92.10;;;;;;5040867;28;20067;-61
2021/11/08 10:13:27;;;;;;;58.30;6.95;;;11.10;92.50;;;;;;5045051;28;20017;-61
2021/11/08 10:15:56;;;;;;;71.10;10.23;;;11.10;92.00;;;;;;5046837;28;20243;-61
2021/11/08 10:18:22;;;;;;;110.85;11.55;;;11.20;92.00;;;;;;5043180;28;20059;-61
2021/11/08 10:20:48;;;;;;;177.77;16.17;;;11.20;92.10;;;;;;5045636;28;20041;-61
2021/11/08 10:23:16;;;;;;;378.77;29.65;;;11.20;92.10;;;;;;5025476;28;20041;-61
2021/11/08 10:25:42;;;;;;;223.18;22.50;;;11.20;92.00;;;;;;5045327;28;20025;-62
2021/11/08 10:28:23;;;;;;;63.08;8.60;;;11.20;92.10;;;;;;5043829;28;20032;-61
2021/11/08 10:30:58;;;;;;;77.70;9.38;;;11.20;92.10;;;;;;5027141;28;20128;-62
2021/11/08 10:33:29;;;;;;;;;;;11.20;92.10;;;;;;5042582;28;20411;-61
2021/11/08 10:35:56;;;;;;;84.90;9.90;;;11.30;92.10;;;;;;5045565;28;19919;-62
2021/11/08 10:38:27;;;;;;;78.45;7.50;;;11.30;92.10;;;;;;5026693;28;20017;-62
2021/11/08 10:41:03;;;;;;;140.00;13.77;;;11.30;92.10;;;;;;5023060;28;21006;-61
2021/11/08 10:43:43;;;;;;;112.68;11.70;;;11.40;92.00;;;;;;5025911;28;20036;-61
2021/11/08 10:46:16;;;;;;;111.63;10.35;;;11.40;92.00;;;;;;5040570;28;20131;-62
2021/11/08 10:48:48;;;;;;;85.00;9.82;;;11.40;91.90;;;;;;5042002;28;20068;-61
2021/11/08 10:51:15;;;;;;;91.40;10.10;;;11.40;91.90;;;;;;5041400;28;20492;-61
2021/11/08 10:53:48;;;;;;;102.40;11.30;;;11.50;91.90;;;;;;5036163;28;20037;-61
2021/11/08 10:56:17;;;;;;;355.65;31.08;;;11.50;91.70;;;;;;5039973;28;20036;-62
2021/11/08 10:58:44;;;;;;;211.20;19.30;;;11.50;91.60;;;;;;5037513;28;20041;-61
2021/11/08 11:01:24;;;;;;;89.43;9.98;;;11.60;91.60;;;;;;5042261;28;20128;-62
2021/11/08 11:03:51;;;;;;;153.13;15.05;;;11.60;91.40;;;;;;5042939;28;20032;-61
2021/11/08 11:06:17;;;;;;;153.90;13.80;;;11.60;91.30;;;;;;5041746;28;20143;-61
2021/11/08 11:08:50;;;;;;;221.75;19.15;;;11.60;91.30;;;;;;5022086;28;20033;-61
2021/11/08 11:11:17;;;;;;;144.57;13.80;;;11.70;91.30;;;;;;5037435;28;20025;-61
2021/11/08 11:13:53;;;;;;;155.05;14.90;;;11.70;91.10;;;;;;5022956;28;20078;-61
2021/11/08 11:16:32;;;;;;;172.52;16.67;;;11.70;91.10;;;;;;5038881;28;20078;-61
2021/11/08 11:19:00;;;;;;;69.75;9.90;;;11.70;91.10;;;;;;5039334;28;20588;-61
2021/11/08 11:21:25;;;;;;;137.07;13.60;;;11.70;91.00;;;;;;5038046;28;20075;-61
2021/11/08 11:23:51;;;;;;;112.97;12.75;;;11.70;91.30;;;;;;5039277;28;20504;-61
2021/11/08 11:26:18;;;;;;;120.03;11.98;;;11.80;91.00;;;;;;5020451;28;20028;-62
2021/11/08 11:28:46;;;;;;;107.07;11.52;;;11.80;91.00;;;;;;5005949;28;20039;-61
2021/11/08 11:31:16;;;;;;;105.80;11.23;;;11.80;90.90;;;;;;5003418;28;20047;-62
2021/11/08 11:33:42;;;;;;;86.80;10.27;;;11.70;90.90;;;;;;5009485;28;20098;-61
2021/11/08 11:36:12;;;;;;;73.43;10.07;;;11.70;90.90;;;;;;5025166;28;20052;-61
2021/11/08 11:38:57;;;;;;;81.63;9.10;;;11.70;91.00;;;;;;5003902;28;20017;-62
2021/11/08 11:41:29;;;;;;;76.95;9.73;;;11.70;91.00;;;;;;5018878;28;20033;-61
2021/11/08 11:44:00;;;;;;;90.18;10.18;;;11.80;91.10;;;;;;5002947;28;20076;-62
2021/11/08 11:46:30;;;;;;;84.65;8.98;;;11.80;91.20;;;;;;5024854;28;20559;-61
2021/11/08 11:48:55;;;;;;;69.50;9.25;;;11.80;91.10;;;;;;5006815;28;20041;-62
2021/11/08 11:51:23;;;;;;;57.55;9.07;;;11.80;91.00;;;;;;5022027;28;20055;-61
2021/11/08 11:53:49;;;;;;;59.88;8.70;;;11.80;90.90;;;;;;5042054;28;20060;-61
2021/11/08 11:56:15;;;;;;;68.35;7.75;;;11.80;90.70;;;;;;4993081;28;20052;-61
2021/11/08 11:58:41;;;;;;;61.97;8.90;;;11.80;90.80;;;;;;5022179;28;20488;-61
2021/11/08 12:01:09;;;;;;;61.85;9.10;;;11.80;90.70;;;;;;5019006;28;20039;-62
2021/11/08 12:03:35;;;;;;;67.43;9.75;;;11.90;90.70;;;;;;5002989;28;20120;-62
2021/11/08 12:06:00;;;;;;;49.83;7.68;;;11.90;90.70;;;;;;5022513;28;20368;-62
2021/11/08 12:08:34;;;;;;;80.47;10.45;;;11.90;90.70;;;;;;5024597;28;20174;-62
2021/11/08 12:11:00;;;;;;;118.65;12.60;;;12.00;90.70;;;;;;5025042;28;20385;-62
2021/11/08 12:13:29;;;;;;;91.88;11.70;;;12.00;90.70;;;;;;5025567;28;20096;-62
2021/11/08 12:15:56;;;;;;;70.65;9.85;;;12.00;90.60;;;;;;4991144;28;20032;-62
2021/11/08 12:18:22;;;;;;;57.88;9.48;;;12.00;90.90;;;;;;5002563;28;20044;-61
2021/11/08 12:20:50;;;;;;;59.85;7.80;;;12.00;90.50;;;;;;5024258;28;20045;-62
2021/11/08 12:23:23;;;;;;;69.90;8.75;;;12.00;90.40;;;;;;5016147;28;20084;-61
2021/11/08 12:25:49;;;;;;;54.45;6.93;;;12.00;90.60;;;;;;5039795;28;20044;-62
2021/11/08 12:28:25;;;;;;;55.40;8.57;;;12.00;90.50;;;;;;5018176;28;20901;-61
2021/11/08 12:30:56;;;;;;;64.75;8.52;;;12.00;90.40;;;;;;5024579;28;20803;-62
2021/11/08 12:33:23;;;;;;;54.58;8.00;;;12.00;90.40;;;;;;5040947;28;20078;-62
2021/11/08 12:35:49;;;;;;;53.10;7.38;;;12.00;90.30;;;;;;5043425;28;20033;-61
2021/11/08 12:38:21;;;;;;;62.42;8.70;;;12.10;90.30;;;;;;5024200;28;20039;-62
2021/11/08 12:40:46;;;;;;;60.78;7.82;;;12.00;90.20;;;;;;5022594;28;20029;-61
2021/11/08 12:43:23;;;;;;;51.28;8.43;;;12.10;90.20;;;;;;5030388;28;20159;-61
2021/11/08 12:45:48;;;;;;;55.55;8.40;;;12.10;90.20;;;;;;5041639;28;20014;-62
2021/11/08 12:48:16;;;;;;;74.50;9.02;;;12.10;90.10;;;;;;5043180;28;20036;-62
2021/11/08 12:50:45;;;;;;;89.85;10.35;;;12.10;90.00;;;;;;5041439;28;20359;-62
2021/11/08 12:53:29;;;;;;;90.95;11.90;;;12.20;90.00;;;;;;5040821;28;20104;-62
2021/11/08 12:55:55;;;;;;;67.32;9.52;;;12.10;90.00;;;;;;5023244;28;20036;-61
2021/11/08 12:58:37;;;;;;;61.25;8.25;;;12.20;90.00;;;;;;5038274;28;20048;-62
2021/11/08 13:01:04;;;;;;;73.47;9.93;;;12.20;90.00;;;;;;5031662;28;20055;-62
2021/11/08 13:03:40;;;;;;;89.72;12.50;;;12.20;89.80;;;;;;5039107;28;20521;-61
2021/11/08 13:06:10;;;;;;;131.68;15.52;;;12.20;89.70;;;;;;5041658;28;20036;-61
2021/11/08 13:08:35;;;;;;;114.20;14.15;;;12.20;89.70;;;;;;5005515;28;20054;-61
2021/11/08 13:11:10;;;;;;;80.72;10.27;;;12.20;89.60;;;;;;5039778;28;20419;-62
2021/11/08 13:13:36;;;;;;;65.10;8.35;;;12.30;89.50;;;;;;5034952;28;20032;-62
2021/11/08 13:16:10;;;;;;;122.55;15.52;;;12.30;89.50;;;;;;5022301;28;20491;-61
2021/11/08 13:18:44;;;;;;;86.43;12.05;;;12.20;89.40;;;;;;5022468;28;20070;-61
2021/11/08 13:21:10;;;;;;;121.72;12.18;;;12.30;89.50;;;;;;5019662;28;20023;-62
2021/11/08 13:23:39;;;;;;;76.40;9.77;;;12.20;89.50;;;;;;5041889;28;20437;-61
2021/11/08 13:26:06;;;;;;;80.35;10.45;;;12.30;89.40;;;;;;5005873;28;20068;-62
2021/11/08 13:28:32;;;;;;;63.63;10.23;;;12.30;89.20;;;;;;5019076;28;20041;-62
2021/11/08 13:31:05;;;;;;;66.05;8.27;;;12.30;89.20;;;;;;5020415;28;20044;-61
2021/11/08 13:33:33;;;;;;;69.55;9.65;;;12.30;89.80;;;;;;5005113;28;20587;-61
2021/11/08 13:35:58;;;;;;;62.72;9.57;;;12.30;89.20;;;;;;5020884;28;20029;-62
2021/11/08 13:38:25;;;;;;;60.85;9.85;;;12.30;89.20;;;;;;5021480;28;20086;-62
2021/11/08 13:41:06;;;;;;;69.38;9.02;;;12.30;89.20;;;;;;5018952;28;20764;-62
2021/11/08 13:43:39;;;;;;;87.13;11.05;;;12.30;89.20;;;;;;5018959;28;20068;-63
2021/11/08 13:46:10;;;;;;;83.15;10.13;;;12.30;89.20;;;;;;5021397;28;20475;-62
2021/11/08 13:48:43;;;;;;;67.38;9.60;;;12.30;89.20;;;;;;5038120;28;20028;-61
2021/11/08 13:51:26;;;;;;;93.93;11.00;;;12.30;89.20;;;;;;5028462;28;20060;-62
2021/11/08 13:53:57;;;;;;;69.53;9.88;;;12.30;88.90;;;;;;5021354;28;20033;-62
2021/11/08 13:56:31;;;;;;;61.00;9.70;;;12.30;88.60;;;;;;5018388;28;20117;-62
2021/11/08 13:58:58;;;;;;;95.90;12.50;;;12.30;88.20;;;;;;5022117;28;20030;-62
2021/11/08 14:01:29;;;;;;;84.25;10.43;;;12.30;87.90;;;;;;5001374;28;20393;-62
2021/11/08 14:03:54;;;;;;;101.90;12.70;;;12.20;87.50;;;;;;5015894;28;20524;-61
2021/11/08 14:06:37;;;;;;;210.00;24.73;;;12.30;86.90;;;;;;5019602;28;20052;-62
2021/11/08 14:09:05;;;;;;;104.00;10.45;;;12.20;86.60;;;;;;5003928;28;20025;-62
2021/11/08 14:11:35;;;;;;;77.68;10.18;;;12.20;86.20;;;;;;5022272;28;20048;-62
2021/11/08 14:14:08;;;;;;;85.90;10.18;;;12.20;86.30;;;;;;5019917;28;20017;-62
2021/11/08 14:16:38;;;;;;;67.13;10.65;;;12.30;86.10;;;;;;5035074;28;20025;-61
2021/11/08 14:19:03;;;;;;;108.00;12.15;;;12.20;86.00;;;;;;5018175;28;20044;-62
2021/11/08 14:21:30;;;;;;;77.53;10.07;;;12.30;86.10;;;;;;5038574;28;20029;-61
2021/11/08 14:24:00;;;;;;;50.00;7.72;;;12.20;85.80;;;;;;5029707;28;20053;-62
2021/11/08 14:26:26;;;;;;;73.43;10.52;;;12.20;85.80;;;;;;5020274;28;20503;-61